Time,TemperatureF,DewpointF,PressureIn,WindDirection,WindDirectionDegrees,WindSpeedMPH,WindSpeedGustMPH,Humidity,HourlyPrecipIn,Conditions,Clouds,dailyrainin,SoftwareType,DateUTC
2013-04-21 00:01:00,34.7,22.2,29.50,ESE,112,0.0,0.0,60,0.00,,---,0.00,VWS V14.01,2013-04-21 05:01:00,
2013-04-21 00:06:00,34.7,22.2,29.50,SE,135,1.6,1.6,60,0.00,,---,0.00,VWS V14.01,2013-04-21 05:06:00,
2013-04-21 00:11:00,34.7,22.2,29.50,East,90,0.0,0.0,60,0.00,,---,0.00,VWS V14.01,2013-04-21 05:11:00,
2013-04-21 00:16:00,34.5,22.1,29.50,ESE,112,0.0,0.0,60,0.00,,---,0.00,VWS V14.01,2013-04-21 05:16:00,
2013-04-21 00:21:00,34.5,22.1,29.50,East,90,0.0,0.0,60,0.00,,---,0.00,VWS V14.01,2013-04-21 05:21:00,
2013-04-21 00:26:00,34.5,22.1,29.50,ESE,112,0.0,0.0,60,0.00,,---,0.00,VWS V14.01,2013-04-21 05:26:00,
2013-04-21 00:31:00,34.5,22.1,29.50,ESE,112,0.0,0.0,60,0.00,,---,0.00,VWS V14.01,2013-04-21 05:31:00,
2013-04-21 00:36:00,34.5,22.1,29.50,SE,135,0.0,0.0,60,0.00,,---,0.00,VWS V14.01,2013-04-21 05:36:00,
2013-04-21 00:41:00,34.3,21.9,29.50,ESE,112,0.0,0.0,60,0.00,,---,0.00,VWS V14.01,2013-04-21 05:41:00,
2013-04-21 00:46:00,34.3,21.9,29.50,ESE,112,0.0,0.0,60,0.00,,---,0.00,VWS V14.01,2013-04-21 05:46:00,
2013-04-21 00:51:00,34.3,21.9,29.50,SE,135,0.0,0.0,60,0.00,,---,0.00,VWS V14.01,2013-04-21 05:51:00,
2013-04-21 00:56:00,34.3,21.9,29.50,SE,135,0.0,0.0,60,0.00,,---,0.00,VWS V14.01,2013-04-21 05:56:00,
2013-04-21 01:01:00,34.3,21.9,29.50,ESE,112,0.0,0.0,60,0.00,,---,0.00,VWS V14.01,2013-04-21 06:01:00,
2013-04-21 01:06:00,34.2,21.7,29.50,East,90,1.3,1.3,60,0.00,,---,0.00,VWS V14.01,2013-04-21 06:06:00,
2013-04-21 01:11:00,34.2,21.7,29.50,ESE,112,0.0,0.0,60,0.00,,---,0.00,VWS V14.01,2013-04-21 06:11:00,
2013-04-21 01:16:00,34.2,21.7,29.50,East,90,2.0,2.0,60,0.00,,---,0.00,VWS V14.01,2013-04-21 06:16:00,
2013-04-21 01:21:00,34.2,21.7,29.50,ESE,112,0.0,0.0,60,0.00,,---,0.00,VWS V14.01,2013-04-21 06:21:00,
2013-04-21 01:26:00,34.2,21.7,29.50,East,90,2.0,2.0,60,0.00,,---,0.00,VWS V14.01,2013-04-21 06:26:00,
2013-04-21 01:31:00,34.0,21.2,29.50,SE,135,0.0,0.0,59,0.00,,---,0.00,VWS V14.01,2013-04-21 06:31:00,
2013-04-21 01:36:00,34.2,21.7,29.50,SE,135,0.0,0.0,60,0.00,,---,0.00,VWS V14.01,2013-04-21 06:36:00,
2013-04-21 01:41:00,34.2,21.7,29.50,ESE,112,0.0,0.0,60,0.00,,---,0.00,VWS V14.01,2013-04-21 06:41:00,
2013-04-21 01:46:00,34.0,21.6,29.50,East,90,1.3,1.3,60,0.00,,---,0.00,VWS V14.01,2013-04-21 06:46:00,
2013-04-21 01:50:00,34.2,21.7,29.50,East,90,2.7,2.7,60,0.00,,---,0.00,VWS V14.01,2013-04-21 06:50:00,
2013-04-21 01:55:00,34.2,21.7,29.50,East,90,0.0,0.0,60,0.00,,---,0.00,VWS V14.01,2013-04-21 06:55:00,
2013-04-21 02:00:00,34.0,21.6,29.50,ESE,112,0.0,0.0,60,0.00,,---,0.00,VWS V14.01,2013-04-21 07:00:00,
2013-04-21 02:05:00,34.0,21.6,29.50,SE,135,2.9,2.9,60,0.00,,---,0.00,VWS V14.01,2013-04-21 07:05:00,
2013-04-21 02:10:00,34.0,22.0,29.50,SE,135,0.0,0.0,61,0.00,,---,0.00,VWS V14.01,2013-04-21 07:10:00,
2013-04-21 02:15:00,34.2,22.1,29.50,SE,135,0.0,0.0,61,0.00,,---,0.00,VWS V14.01,2013-04-21 07:15:00,
2013-04-21 02:20:00,34.0,22.0,29.50,East,90,0.0,0.0,61,0.00,,---,0.00,VWS V14.01,2013-04-21 07:20:00,
2013-04-21 02:25:00,34.0,22.0,29.50,SE,135,0.0,0.0,61,0.00,,---,0.00,VWS V14.01,2013-04-21 07:25:00,
2013-04-21 02:30:00,34.0,22.0,29.50,East,90,2.7,2.7,61,0.00,,---,0.00,VWS V14.01,2013-04-21 07:30:00,
2013-04-21 02:35:00,34.0,22.4,29.50,East,90,0.0,0.0,62,0.00,,---,0.00,VWS V14.01,2013-04-21 07:35:00,
2013-04-21 02:40:00,34.0,22.4,29.50,East,90,0.0,0.0,62,0.00,,---,0.00,VWS V14.01,2013-04-21 07:40:00,
2013-04-21 02:45:00,34.0,22.4,29.50,SE,135,0.9,0.9,62,0.00,,---,0.00,VWS V14.01,2013-04-21 07:45:00,
2013-04-21 02:50:00,34.0,22.4,29.50,SE,135,0.0,0.0,62,0.00,,---,0.00,VWS V14.01,2013-04-21 07:50:00,
2013-04-21 02:55:00,34.0,22.4,29.50,SE,135,1.1,1.1,62,0.00,,---,0.00,VWS V14.01,2013-04-21 07:55:00,
2013-04-21 03:00:00,34.0,22.4,29.50,SE,135,0.0,0.0,62,0.00,,---,0.00,VWS V14.01,2013-04-21 08:00:00,
2013-04-21 03:05:00,34.2,22.5,29.50,SE,135,0.0,0.0,62,0.00,,---,0.00,VWS V14.01,2013-04-21 08:05:00,
2013-04-21 03:10:00,34.0,22.4,29.53,SE,135,0.0,0.0,62,0.00,,---,0.00,VWS V14.01,2013-04-21 08:10:00,
2013-04-21 03:15:00,34.0,22.4,29.53,SE,135,0.0,0.0,62,0.00,,---,0.00,VWS V14.01,2013-04-21 08:15:00,
2013-04-21 03:20:00,34.0,22.4,29.53,SE,135,0.0,0.0,62,0.00,,---,0.00,VWS V14.01,2013-04-21 08:20:00,
2013-04-21 03:25:00,34.0,22.0,29.53,SE,135,0.0,0.0,61,0.00,,---,0.00,VWS V14.01,2013-04-21 08:25:00,
2013-04-21 03:30:00,34.0,22.0,29.53,ESE,112,0.0,0.0,61,0.00,,---,0.00,VWS V14.01,2013-04-21 08:30:00,
2013-04-21 03:35:00,34.0,22.0,29.53,ESE,112,0.0,0.0,61,0.00,,---,0.00,VWS V14.01,2013-04-21 08:35:00,
2013-04-21 03:40:00,34.0,21.6,29.53,East,90,0.0,0.0,60,0.00,,---,0.00,VWS V14.01,2013-04-21 08:40:00,
2013-04-21 03:45:00,33.8,21.4,29.53,East,90,0.0,0.0,60,0.00,,---,0.00,VWS V14.01,2013-04-21 08:45:00,
2013-04-21 03:50:00,33.8,21.4,29.53,East,90,0.0,0.0,60,0.00,,---,0.00,VWS V14.01,2013-04-21 08:50:00,
2013-04-21 03:55:00,33.8,21.8,29.53,East,90,0.0,0.0,61,0.00,,---,0.00,VWS V14.01,2013-04-21 08:55:00,
2013-04-21 04:00:00,33.8,21.8,29.53,East,90,0.0,0.0,61,0.00,,---,0.00,VWS V14.01,2013-04-21 09:00:00,
2013-04-21 04:05:00,33.8,21.4,29.53,East,90,0.0,0.0,60,0.00,,---,0.00,VWS V14.01,2013-04-21 09:05:00,
2013-04-21 04:10:00,33.6,21.6,29.53,East,90,0.0,0.0,61,0.00,,---,0.00,VWS V14.01,2013-04-21 09:10:00,
2013-04-21 04:15:00,33.6,21.6,29.53,East,90,0.0,0.0,61,0.00,,---,0.00,VWS V14.01,2013-04-21 09:15:00,
2013-04-21 04:20:00,33.6,21.6,29.53,ESE,112,0.0,0.0,61,0.00,,---,0.00,VWS V14.01,2013-04-21 09:20:00,
2013-04-21 04:25:00,33.6,21.6,29.53,SE,135,0.0,0.0,61,0.00,,---,0.00,VWS V14.01,2013-04-21 09:25:00,
2013-04-21 04:30:00,33.6,21.2,29.53,ESE,112,0.0,1.6,60,0.00,,---,0.00,VWS V14.01,2013-04-21 09:30:00,
2013-04-21 04:35:00,33.6,21.2,29.53,ESE,112,2.2,2.2,60,0.00,,---,0.00,VWS V14.01,2013-04-21 09:35:00,
2013-04-21 04:40:00,33.6,21.6,29.53,East,90,0.0,2.5,61,0.00,,---,0.00,VWS V14.01,2013-04-21 09:40:00,
2013-04-21 04:45:00,33.6,21.6,29.53,ESE,112,2.2,2.2,61,0.00,,---,0.00,VWS V14.01,2013-04-21 09:45:00,
2013-04-21 04:50:00,33.6,21.6,29.53,ESE,112,0.0,0.0,61,0.00,,---,0.00,VWS V14.01,2013-04-21 09:50:00,
2013-04-21 04:55:00,33.6,21.6,29.53,ESE,112,0.0,0.0,61,0.00,,---,0.00,VWS V14.01,2013-04-21 09:55:00,
2013-04-21 05:00:00,33.6,21.6,29.53,East,90,0.0,0.0,61,0.00,,---,0.00,VWS V14.01,2013-04-21 10:00:00,
2013-04-21 05:05:00,33.6,21.6,29.53,East,90,0.0,2.0,61,0.00,,---,0.00,VWS V14.01,2013-04-21 10:05:00,
2013-04-21 05:10:00,33.6,21.6,29.53,SE,135,0.0,0.0,61,0.00,,---,0.00,VWS V14.01,2013-04-21 10:10:00,
2013-04-21 05:15:00,33.6,21.6,29.53,SE,135,0.0,0.0,61,0.00,,---,0.00,VWS V14.01,2013-04-21 10:15:00,
2013-04-21 05:20:00,33.6,21.6,29.53,SE,135,0.0,0.0,61,0.00,,---,0.00,VWS V14.01,2013-04-21 10:20:00,
2013-04-21 05:25:00,33.6,21.6,29.53,SE,135,2.7,2.7,61,0.00,,---,0.00,VWS V14.01,2013-04-21 10:25:00,
2013-04-21 05:30:00,33.8,21.4,29.53,East,90,1.6,1.6,60,0.00,,---,0.00,VWS V14.01,2013-04-21 10:30:00,
2013-04-21 05:35:00,33.8,21.4,29.53,East,90,0.0,0.0,60,0.00,,---,0.00,VWS V14.01,2013-04-21 10:35:00,
2013-04-21 05:40:00,33.8,21.4,29.53,SE,135,0.0,2.0,60,0.00,,---,0.00,VWS V14.01,2013-04-21 10:40:00,
2013-04-21 05:45:00,33.8,21.4,29.53,SE,135,0.0,0.0,60,0.00,,---,0.00,VWS V14.01,2013-04-21 10:45:00,
2013-04-21 05:50:00,33.8,21.0,29.53,SE,135,0.0,0.0,59,0.00,,---,0.00,VWS V14.01,2013-04-21 10:50:00,
2013-04-21 05:55:00,34.0,21.2,29.53,SE,135,3.8,3.8,59,0.00,,---,0.00,VWS V14.01,2013-04-21 10:55:00,
2013-04-21 06:00:00,34.0,21.2,29.53,ESE,112,0.0,0.0,59,0.00,,---,0.00,VWS V14.01,2013-04-21 11:00:00,
2013-04-21 06:05:00,34.2,20.9,29.53,ENE,68,2.0,2.0,58,0.00,,---,0.00,VWS V14.01,2013-04-21 11:05:00,
2013-04-21 06:10:00,34.2,20.9,29.56,East,90,0.0,0.0,58,0.00,,---,0.00,VWS V14.01,2013-04-21 11:10:00,
2013-04-21 06:15:00,34.3,21.1,29.56,SE,135,0.0,0.0,58,0.00,,---,0.00,VWS V14.01,2013-04-21 11:15:00,
2013-04-21 06:20:00,34.3,21.1,29.56,East,90,0.0,2.5,58,0.00,,---,0.00,VWS V14.01,2013-04-21 11:20:00,
2013-04-21 06:25:00,34.3,21.1,29.56,East,90,0.0,2.9,58,0.00,,---,0.00,VWS V14.01,2013-04-21 11:25:00,
2013-04-21 06:30:00,34.5,21.3,29.56,East,90,0.0,0.0,58,0.00,,---,0.00,VWS V14.01,2013-04-21 11:30:00,
2013-04-21 06:35:00,34.5,21.3,29.56,SE,135,1.1,2.5,58,0.00,,---,0.00,VWS V14.01,2013-04-21 11:35:00,
2013-04-21 06:40:00,34.7,21.5,29.56,SE,135,0.0,0.0,58,0.00,,---,0.00,VWS V14.01,2013-04-21 11:40:00,
2013-04-21 06:45:00,34.9,21.6,29.56,East,90,0.0,0.0,58,0.00,,---,0.00,VWS V14.01,2013-04-21 11:45:00,
2013-04-21 06:50:00,34.9,21.2,29.56,East,90,3.1,3.1,57,0.00,,---,0.00,VWS V14.01,2013-04-21 11:50:00,
2013-04-21 06:55:00,35.1,21.4,29.56,SE,135,2.2,2.2,57,0.00,,---,0.00,VWS V14.01,2013-04-21 11:55:00,
2013-04-21 07:00:00,35.1,21.4,29.56,SE,135,0.0,2.5,57,0.00,,---,0.00,VWS V14.01,2013-04-21 12:00:00,
2013-04-21 07:05:00,35.2,21.5,29.56,SE,135,0.9,2.9,57,0.00,,---,0.00,VWS V14.01,2013-04-21 12:05:00,
2013-04-21 07:10:00,35.6,21.9,29.56,SE,135,2.7,2.7,57,0.00,,---,0.00,VWS V14.01,2013-04-21 12:10:00,
2013-04-21 07:15:00,35.8,21.6,29.56,ESE,112,1.6,2.9,56,0.00,,---,0.00,VWS V14.01,2013-04-21 12:15:00,
2013-04-21 07:20:00,36.0,21.8,29.56,SE,135,2.2,2.2,56,0.00,,---,0.00,VWS V14.01,2013-04-21 12:20:00,
2013-04-21 07:25:00,36.1,22.0,29.56,South,180,4.0,4.0,56,0.00,,---,0.00,VWS V14.01,2013-04-21 12:25:00,
2013-04-21 07:30:00,36.5,22.3,29.56,SE,135,3.1,3.1,56,0.00,,---,0.00,VWS V14.01,2013-04-21 12:30:00,
2013-04-21 07:35:00,36.7,22.5,29.56,SSW,202,2.9,2.9,56,0.00,,---,0.00,VWS V14.01,2013-04-21 12:35:00,
2013-04-21 07:40:00,37.0,22.4,29.56,East,90,6.0,6.0,55,0.00,,---,0.00,VWS V14.01,2013-04-21 12:40:00,
2013-04-21 07:45:00,37.0,22.4,29.56,SE,135,3.1,3.1,55,0.00,,---,0.00,VWS V14.01,2013-04-21 12:45:00,
2013-04-21 07:50:00,37.4,22.3,29.56,SE,135,3.4,3.4,54,0.00,,---,0.00,VWS V14.01,2013-04-21 12:50:00,
2013-04-21 07:55:00,37.8,22.6,29.56,South,180,2.5,4.9,54,0.00,,---,0.00,VWS V14.01,2013-04-21 12:55:00,
2013-04-21 08:00:00,38.1,22.5,29.56,ESE,112,6.3,6.3,53,0.00,,---,0.00,VWS V14.01,2013-04-21 13:00:00,
2013-04-21 08:05:00,38.3,22.7,29.56,SE,135,4.0,4.0,53,0.00,,---,0.00,VWS V14.01,2013-04-21 13:05:00,
2013-04-21 08:10:00,38.7,23.5,29.56,SE,135,3.8,3.8,54,0.00,,---,0.00,VWS V14.01,2013-04-21 13:10:00,
2013-04-21 08:15:00,38.8,23.6,29.56,East,90,2.9,2.9,54,0.00,,---,0.00,VWS V14.01,2013-04-21 13:15:00,
2013-04-21 08:20:00,39.0,23.4,29.56,ESE,112,2.7,2.7,53,0.00,,---,0.00,VWS V14.01,2013-04-21 13:20:00,
2013-04-21 08:25:00,39.0,22.9,29.59,SSW,202,2.5,2.5,52,0.00,,---,0.00,VWS V14.01,2013-04-21 13:25:00,
2013-04-21 08:30:00,39.2,22.6,29.59,North,0,2.5,3.4,51,0.00,,---,0.00,VWS V14.01,2013-04-21 13:30:00,
2013-04-21 08:35:00,39.2,22.1,29.59,East,90,3.1,3.1,50,0.00,,---,0.00,VWS V14.01,2013-04-21 13:35:00,
2013-04-21 08:40:00,39.2,22.1,29.59,SSW,202,3.4,3.4,50,0.00,,---,0.00,VWS V14.01,2013-04-21 13:40:00,
2013-04-21 08:45:00,39.4,22.3,29.59,SSE,158,3.6,3.6,50,0.00,,---,0.00,VWS V14.01,2013-04-21 13:45:00,
2013-04-21 08:50:00,39.6,22.5,29.59,East,90,4.5,4.5,50,0.00,,---,0.00,VWS V14.01,2013-04-21 13:50:00,
2013-04-21 08:55:00,39.7,22.6,29.59,East,90,3.1,3.1,50,0.00,,---,0.00,VWS V14.01,2013-04-21 13:55:00,
2013-04-21 09:00:00,39.9,22.8,29.59,SE,135,3.6,3.6,50,0.00,,---,0.00,VWS V14.01,2013-04-21 14:00:00,
2013-04-21 09:05:00,39.9,22.8,29.59,SE,135,2.2,2.2,50,0.00,,---,0.00,VWS V14.01,2013-04-21 14:05:00,
2013-04-21 09:10:00,40.3,23.6,29.59,SE,135,0.0,0.0,51,0.00,,---,0.00,VWS V14.01,2013-04-21 14:10:00,
2013-04-21 09:15:00,40.5,23.8,29.59,South,180,1.3,1.3,51,0.00,,---,0.00,VWS V14.01,2013-04-21 14:15:00,
2013-04-21 09:20:00,40.6,23.5,29.59,SE,135,2.0,3.1,50,0.00,,---,0.00,VWS V14.01,2013-04-21 14:20:00,
2013-04-21 09:25:00,41.2,24.0,29.59,SE,135,4.3,4.3,50,0.00,,---,0.00,VWS V14.01,2013-04-21 14:25:00,
2013-04-21 09:30:00,41.5,24.3,29.59,SE,135,2.5,2.5,50,0.00,,---,0.00,VWS V14.01,2013-04-21 14:30:00,
2013-04-21 09:35:00,41.7,24.0,29.59,East,90,2.5,3.8,49,0.00,,---,0.00,VWS V14.01,2013-04-21 14:35:00,
2013-04-21 09:40:00,41.7,23.5,29.59,East,90,4.0,4.0,48,0.00,,---,0.00,VWS V14.01,2013-04-21 14:40:00,
2013-04-21 09:45:00,41.7,23.5,29.59,East,90,4.0,4.0,48,0.00,,---,0.00,VWS V14.01,2013-04-21 14:45:00,
2013-04-21 09:50:00,42.1,23.8,29.59,SE,135,1.6,2.7,48,0.00,,---,0.00,VWS V14.01,2013-04-21 14:50:00,
2013-04-21 09:55:00,42.3,24.0,29.56,SE,135,3.8,3.8,48,0.00,,---,0.00,VWS V14.01,2013-04-21 14:55:00,
2013-04-21 10:00:00,42.6,24.3,29.56,East,90,3.4,3.4,48,0.00,,---,0.00,VWS V14.01,2013-04-21 15:00:00,
2013-04-21 10:05:00,43.0,24.6,29.56,East,90,2.9,2.9,48,0.00,,---,0.00,VWS V14.01,2013-04-21 15:05:00,
2013-04-21 10:10:00,43.3,25.0,29.59,SE,135,5.4,5.4,48,0.00,,---,0.00,VWS V14.01,2013-04-21 15:10:00,
2013-04-21 10:15:00,43.5,25.1,29.59,South,180,5.6,5.6,48,0.00,,---,0.00,VWS V14.01,2013-04-21 15:15:00,
2013-04-21 10:20:00,44.2,25.8,29.59,SSW,202,3.6,3.6,48,0.00,,---,0.00,VWS V14.01,2013-04-21 15:20:00,
2013-04-21 10:25:00,44.6,25.6,29.56,SSW,202,0.0,0.0,47,0.00,,---,0.00,VWS V14.01,2013-04-21 15:25:00,
2013-04-21 10:30:00,44.6,25.1,29.56,East,90,2.9,2.9,46,0.00,,---,0.00,VWS V14.01,2013-04-21 15:30:00,
2013-04-21 10:35:00,44.8,25.3,29.56,East,90,3.6,3.6,46,0.00,,---,0.00,VWS V14.01,2013-04-21 15:35:00,
2013-04-21 10:40:00,45.1,25.1,29.56,ESE,112,3.8,3.8,45,0.00,,---,0.00,VWS V14.01,2013-04-21 15:40:00,
2013-04-21 10:45:00,45.1,25.1,29.56,South,180,2.0,2.5,45,0.00,,---,0.00,VWS V14.01,2013-04-21 15:45:00,
2013-04-21 10:50:00,45.5,25.4,29.56,SSW,202,3.1,3.1,45,0.00,,---,0.00,VWS V14.01,2013-04-21 15:50:00,
2013-04-21 10:55:00,46.0,25.9,29.56,South,180,0.0,0.0,45,0.00,,---,0.00,VWS V14.01,2013-04-21 15:55:00,
2013-04-21 11:00:00,46.2,26.1,29.56,SSW,202,5.4,5.4,45,0.00,,---,0.00,VWS V14.01,2013-04-21 16:00:00,
2013-04-21 11:05:00,46.0,25.4,29.56,SSE,158,0.9,3.4,44,0.00,,---,0.00,VWS V14.01,2013-04-21 16:05:00,
2013-04-21 11:10:00,46.0,25.4,29.56,ESE,112,3.4,3.4,44,0.00,,---,0.00,VWS V14.01,2013-04-21 16:10:00,
2013-04-21 11:15:00,46.0,25.4,29.56,East,90,3.1,3.1,44,0.00,,---,0.00,VWS V14.01,2013-04-21 16:15:00,
2013-04-21 11:20:00,46.0,25.4,29.56,SE,135,3.1,3.1,44,0.00,,---,0.00,VWS V14.01,2013-04-21 16:20:00,
2013-04-21 11:25:00,46.4,25.7,29.56,SE,135,2.5,2.5,44,0.00,,---,0.00,VWS V14.01,2013-04-21 16:25:00,
2013-04-21 11:30:00,46.6,25.9,29.56,ESE,112,3.1,3.1,44,0.00,,---,0.00,VWS V14.01,2013-04-21 16:30:00,
2013-04-21 11:35:00,46.4,25.7,29.56,ENE,68,2.9,2.9,44,0.00,,---,0.00,VWS V14.01,2013-04-21 16:35:00,
2013-04-21 11:40:00,46.4,25.7,29.56,ENE,68,3.6,3.6,44,0.00,,---,0.00,VWS V14.01,2013-04-21 16:40:00,
2013-04-21 11:45:00,46.2,26.1,29.56,NE,45,2.0,2.0,45,0.00,,---,2.11,VWS V14.01,2013-04-21 16:45:00,
2013-04-21 11:50:00,46.2,25.5,29.56,ENE,68,3.1,3.1,44,0.00,,---,0.00,VWS V14.01,2013-04-21 16:50:00,
2013-04-21 11:55:00,46.0,25.9,29.56,ENE,68,3.8,3.8,45,0.00,,---,0.00,VWS V14.01,2013-04-21 16:55:00,
2013-04-21 12:00:00,46.4,25.7,29.56,SSE,158,2.7,3.1,44,0.00,,---,0.00,VWS V14.01,2013-04-21 17:00:00,
2013-04-21 12:05:00,46.2,26.1,29.56,ESE,112,2.5,2.5,45,0.00,,---,0.00,VWS V14.01,2013-04-21 17:05:00,
2013-04-21 12:10:00,46.2,25.5,29.56,East,90,2.9,6.5,44,0.00,,---,0.00,VWS V14.01,2013-04-21 17:10:00,
2013-04-21 12:15:00,46.4,26.2,29.56,East,90,3.4,3.4,45,0.00,,---,0.00,VWS V14.01,2013-04-21 17:15:00,
2013-04-21 12:20:00,47.8,31.5,29.56,South,180,3.1,3.1,53,0.00,,---,0.00,VWS V14.01,2013-04-21 17:20:00,
2013-04-21 12:25:00,48.2,31.9,29.53,ENE,68,1.1,1.1,53,0.00,,---,0.00,VWS V14.01,2013-04-21 17:25:00,
2013-04-21 12:30:00,48.4,30.6,29.53,East,90,3.6,3.6,50,0.00,,---,0.00,VWS V14.01,2013-04-21 17:30:00,
2013-04-21 12:35:00,48.7,31.4,29.53,South,180,4.0,4.0,51,0.00,,---,0.00,VWS V14.01,2013-04-21 17:35:00,
2013-04-21 12:40:00,49.3,33.4,29.53,East,90,5.4,5.4,54,0.00,,---,0.00,VWS V14.01,2013-04-21 17:40:00,
2013-04-21 12:45:00,49.5,33.5,29.53,SE,135,4.0,4.0,54,0.00,,---,0.00,VWS V14.01,2013-04-21 17:45:00,
2013-04-21 12:50:00,49.8,32.4,29.53,ESE,112,4.5,4.5,51,0.00,,---,0.00,VWS V14.01,2013-04-21 17:50:00,
2013-04-21 12:55:00,49.8,31.4,29.50,ESE,112,4.0,4.0,49,0.00,,---,0.00,VWS V14.01,2013-04-21 17:55:00,
2013-04-21 13:00:00,50.4,31.4,29.50,SE,135,4.3,4.3,48,0.00,,---,0.00,VWS V14.01,2013-04-21 18:00:00,
2013-04-21 13:05:00,50.7,31.8,29.50,East,90,6.0,6.0,48,0.00,,---,0.00,VWS V14.01,2013-04-21 18:05:00,
2013-04-21 13:10:00,50.5,30.5,29.50,East,90,4.3,4.3,46,0.00,,---,0.00,VWS V14.01,2013-04-21 18:10:00,
2013-04-21 13:15:00,50.9,30.9,29.50,East,90,2.7,2.7,46,0.00,,---,0.00,VWS V14.01,2013-04-21 18:15:00,
2013-04-21 13:20:00,51.1,30.5,29.50,South,180,5.8,5.8,45,0.00,,---,0.00,VWS V14.01,2013-04-21 18:20:00,
2013-04-21 13:25:00,50.7,29.6,29.50,East,90,3.1,3.1,44,0.00,,---,0.00,VWS V14.01,2013-04-21 18:25:00,
2013-04-21 13:30:00,50.7,29.6,29.50,East,90,3.8,3.8,44,0.00,,---,0.00,VWS V14.01,2013-04-21 18:30:00,
2013-04-21 13:35:00,50.7,30.2,29.50,ESE,112,3.6,3.6,45,0.00,,---,0.00,VWS V14.01,2013-04-21 18:35:00,
2013-04-21 13:40:00,50.9,29.8,29.50,East,90,3.8,3.8,44,0.00,,---,0.00,VWS V14.01,2013-04-21 18:40:00,
2013-04-21 13:45:00,50.7,29.1,29.50,ESE,112,2.2,2.2,43,0.00,,---,0.00,VWS V14.01,2013-04-21 18:45:00,
2013-04-21 13:50:00,51.1,30.0,29.50,East,90,5.4,5.4,44,0.00,,---,0.00,VWS V14.01,2013-04-21 18:50:00,
2013-04-21 13:55:00,50.2,28.0,29.50,SE,135,5.4,5.4,42,0.00,,---,0.00,VWS V14.01,2013-04-21 18:55:00,
2013-04-21 14:00:00,49.1,27.0,29.50,SE,135,5.6,5.6,42,0.00,,---,0.00,VWS V14.01,2013-04-21 19:00:00,
2013-04-21 14:05:00,49.1,27.6,29.50,SE,135,2.9,2.9,43,0.00,,---,0.00,VWS V14.01,2013-04-21 19:05:00,
2013-04-21 14:10:00,49.3,27.8,29.47,East,90,2.9,2.9,43,0.00,,---,0.00,VWS V14.01,2013-04-21 19:10:00,
2013-04-21 14:15:00,49.1,27.6,29.47,ESE,112,4.9,4.9,43,0.00,,---,0.00,VWS V14.01,2013-04-21 19:15:00,
2013-04-21 14:20:00,48.9,27.4,29.47,East,90,2.0,2.0,43,0.00,,---,0.00,VWS V14.01,2013-04-21 19:20:00,
2013-04-21 14:25:00,48.9,27.4,29.47,East,90,3.1,3.1,43,0.00,,---,0.00,VWS V14.01,2013-04-21 19:25:00,
2013-04-21 14:30:00,48.9,27.4,29.47,East,90,3.6,3.6,43,0.00,,---,0.00,VWS V14.01,2013-04-21 19:30:00,
2013-04-21 14:35:00,48.9,27.4,29.47,South,180,2.2,2.2,43,0.00,,---,0.00,VWS V14.01,2013-04-21 19:35:00,
2013-04-21 14:40:00,48.9,27.4,29.47,ESE,112,2.9,2.9,43,0.00,,---,0.00,VWS V14.01,2013-04-21 19:40:00,
2013-04-21 14:45:00,48.9,27.4,29.47,ESE,112,4.0,4.0,43,0.00,,---,0.00,VWS V14.01,2013-04-21 19:45:00,
2013-04-21 14:50:00,48.7,27.3,29.47,East,90,4.0,4.0,43,0.00,,---,0.00,VWS V14.01,2013-04-21 19:50:00,
2013-04-21 14:55:00,49.1,27.6,29.47,South,180,4.7,4.7,43,0.00,,---,0.00,VWS V14.01,2013-04-21 19:55:00,
2013-04-21 15:00:00,49.1,27.6,29.47,SE,135,3.6,3.6,43,0.00,,---,0.00,VWS V14.01,2013-04-21 20:00:00,
2013-04-21 15:05:00,49.1,27.6,29.47,SE,135,3.6,3.6,43,0.00,,---,0.00,VWS V14.01,2013-04-21 20:05:00,
2013-04-21 15:10:00,49.1,27.6,29.44,SE,135,2.7,3.6,43,0.00,,---,0.00,VWS V14.01,2013-04-21 20:10:00,
2013-04-21 15:15:00,50.4,28.2,29.44,East,90,2.9,2.9,42,0.00,,---,0.00,VWS V14.01,2013-04-21 20:15:00,
2013-04-21 15:20:00,50.5,28.3,29.44,SE,135,2.9,2.9,42,0.00,,---,0.00,VWS V14.01,2013-04-21 20:20:00,
2013-04-21 15:25:00,50.7,28.5,29.44,ENE,68,3.4,3.4,42,0.00,,---,0.00,VWS V14.01,2013-04-21 20:25:00,
2013-04-21 15:30:00,50.4,27.6,29.44,NNW,338,3.1,3.1,41,0.00,,---,0.00,VWS V14.01,2013-04-21 20:30:00,
2013-04-21 15:35:00,51.1,28.8,29.44,ESE,112,3.8,3.8,42,0.00,,---,0.00,VWS V14.01,2013-04-21 20:35:00,
2013-04-21 15:40:00,51.1,28.2,29.44,SE,135,9.6,9.6,41,0.00,,---,0.00,VWS V14.01,2013-04-21 20:40:00,
2013-04-21 15:45:00,51.3,28.4,29.44,East,90,1.1,4.0,41,0.00,,---,0.00,VWS V14.01,2013-04-21 20:45:00,
2013-04-21 15:50:00,51.1,28.2,29.44,South,180,2.5,2.5,41,0.00,,---,0.00,VWS V14.01,2013-04-21 20:50:00,
2013-04-21 15:55:00,51.3,28.4,29.44,South,180,3.4,3.4,41,0.00,,---,0.00,VWS V14.01,2013-04-21 20:55:00,
2013-04-21 16:00:00,50.9,28.1,29.44,South,180,2.5,4.0,41,0.00,,---,0.00,VWS V14.01,2013-04-21 21:00:00,
2013-04-21 16:05:00,51.3,28.4,29.44,SE,135,1.1,1.1,41,0.00,,---,0.00,VWS V14.01,2013-04-21 21:05:00,
2013-04-21 16:10:00,50.7,27.9,29.44,ESE,112,5.6,5.6,41,0.00,,---,0.00,VWS V14.01,2013-04-21 21:10:00,
2013-04-21 16:15:00,50.5,27.7,29.44,SE,135,3.6,3.6,41,0.00,,---,0.00,VWS V14.01,2013-04-21 21:15:00,
2013-04-21 16:20:00,50.9,28.1,29.44,East,90,4.3,4.3,41,0.00,,---,0.00,VWS V14.01,2013-04-21 21:20:00,
2013-04-21 16:25:00,51.1,28.2,29.41,SE,135,3.1,3.1,41,0.00,,---,0.00,VWS V14.01,2013-04-21 21:25:00,
2013-04-21 16:30:00,50.9,28.1,29.41,ENE,68,2.7,2.9,41,0.00,,---,0.00,VWS V14.01,2013-04-21 21:30:00,
2013-04-21 16:35:00,50.9,28.1,29.41,East,90,3.8,3.8,41,0.00,,---,0.00,VWS V14.01,2013-04-21 21:35:00,
2013-04-21 16:40:00,50.9,28.1,29.41,South,180,1.6,1.6,41,0.00,,---,0.00,VWS V14.01,2013-04-21 21:40:00,
2013-04-21 16:45:00,50.9,28.1,29.41,East,90,1.6,2.9,41,0.00,,---,0.00,VWS V14.01,2013-04-21 21:45:00,
2013-04-21 16:50:00,50.4,27.6,29.41,East,90,3.4,3.4,41,0.00,,---,0.00,VWS V14.01,2013-04-21 21:50:00,
2013-04-21 16:55:00,50.9,28.1,29.41,ESE,112,3.6,3.6,41,0.00,,---,0.00,VWS V14.01,2013-04-21 21:55:00,
2013-04-21 17:00:00,51.4,28.5,29.41,ESE,112,2.0,2.0,41,0.00,,---,0.00,VWS V14.01,2013-04-21 22:00:00,
2013-04-21 17:04:00,51.8,28.9,29.41,East,90,1.1,1.1,41,0.00,,---,0.00,VWS V14.01,2013-04-21 22:04:00,
2013-04-21 17:09:00,52.7,29.1,29.41,East,90,2.0,4.0,40,0.00,,---,2.11,VWS V14.01,2013-04-21 22:09:00,
2013-04-21 17:14:00,53.2,29.6,29.41,East,90,4.3,4.3,40,0.00,,---,0.00,VWS V14.01,2013-04-21 22:14:00,
2013-04-21 17:19:00,53.2,29.6,29.41,East,90,7.6,7.6,40,0.00,,---,0.00,VWS V14.01,2013-04-21 22:19:00,
2013-04-21 17:24:00,53.1,29.4,29.41,East,90,2.9,3.8,40,0.00,,---,0.00,VWS V14.01,2013-04-21 22:24:00,
2013-04-21 17:29:00,53.2,29.6,29.41,ENE,68,3.8,3.8,40,0.00,,---,0.00,VWS V14.01,2013-04-21 22:29:00,
2013-04-21 17:34:00,53.6,29.9,29.41,NE,45,5.6,5.6,40,0.00,,---,0.00,VWS V14.01,2013-04-21 22:34:00,
2013-04-21 17:39:00,54.1,30.4,29.41,East,90,1.6,1.6,40,0.00,,---,2.11,VWS V14.01,2013-04-21 22:39:00,
2013-04-21 17:44:00,54.3,30.5,29.41,East,90,2.2,3.8,40,0.00,,---,0.00,VWS V14.01,2013-04-21 22:44:00,
2013-04-21 17:49:00,54.7,30.9,29.41,SE,135,3.8,3.8,40,0.00,,---,0.00,VWS V14.01,2013-04-21 22:49:00,
2013-04-21 17:54:00,54.7,30.9,29.41,ENE,68,2.9,2.9,40,0.00,,---,0.00,VWS V14.01,2013-04-21 22:54:00,
2013-04-21 17:59:00,54.9,31.0,29.41,ESE,112,2.9,2.9,40,0.00,,---,0.00,VWS V14.01,2013-04-21 22:59:00,
2013-04-21 18:04:00,54.7,30.9,29.41,SE,135,0.0,0.0,40,0.00,,---,0.00,VWS V14.01,2013-04-21 23:04:00,
2013-04-21 18:09:00,54.5,30.7,29.38,SSW,202,0.9,3.6,40,0.00,,---,0.00,VWS V14.01,2013-04-21 23:09:00,
2013-04-21 18:14:00,54.3,30.5,29.38,East,90,1.1,1.1,40,0.00,,---,0.00,VWS V14.01,2013-04-21 23:14:00,
2013-04-21 18:19:00,54.3,30.5,29.38,South,180,2.9,2.9,40,0.00,,---,0.00,VWS V14.01,2013-04-21 23:19:00,
2013-04-21 18:24:00,54.3,30.5,29.38,East,90,4.0,4.0,40,0.00,,---,0.00,VWS V14.01,2013-04-21 23:24:00,
2013-04-21 18:29:00,54.3,30.5,29.41,East,90,4.5,4.5,40,0.00,,---,0.00,VWS V14.01,2013-04-21 23:29:00,
2013-04-21 18:34:00,54.3,30.5,29.41,SE,135,0.0,0.0,40,0.00,,---,0.00,VWS V14.01,2013-04-21 23:34:00,
2013-04-21 18:39:00,54.9,31.0,29.38,South,180,2.0,2.0,40,0.00,,---,0.00,VWS V14.01,2013-04-21 23:39:00,
2013-04-21 18:44:00,54.9,31.0,29.38,East,90,1.3,1.3,40,0.00,,---,0.00,VWS V14.01,2013-04-21 23:44:00,
2013-04-21 18:49:00,54.9,31.0,29.38,East,90,0.9,0.9,40,0.00,,---,0.00,VWS V14.01,2013-04-21 23:49:00,
2013-04-21 18:54:00,54.0,30.2,29.38,SE,135,3.6,3.6,40,0.00,,---,0.00,VWS V14.01,2013-04-21 23:54:00,
2013-04-21 18:59:00,53.8,30.0,29.38,East,90,2.0,2.0,40,0.00,,---,0.00,VWS V14.01,2013-04-21 23:59:00,
2013-04-21 19:04:00,53.8,30.0,29.38,East,90,0.0,0.0,40,0.00,,---,0.00,VWS V14.01,2013-04-22 00:04:00,
2013-04-21 19:09:00,53.2,29.6,29.38,SE,135,2.5,2.5,40,0.00,,---,0.00,VWS V14.01,2013-04-22 00:09:00,
2013-04-21 19:14:00,52.7,29.1,29.38,East,90,2.2,2.2,40,0.00,,---,0.00,VWS V14.01,2013-04-22 00:14:00,
2013-04-21 19:19:00,52.2,28.6,29.38,SE,135,2.2,2.2,40,0.00,,---,0.00,VWS V14.01,2013-04-22 00:19:00,
2013-04-21 19:24:00,51.6,28.7,29.38,SE,135,0.0,2.7,41,0.00,,---,0.00,VWS V14.01,2013-04-22 00:24:00,
2013-04-21 19:29:00,51.6,28.7,29.38,SE,135,0.0,0.0,41,0.00,,---,0.00,VWS V14.01,2013-04-22 00:29:00,
2013-04-21 19:34:00,51.3,28.4,29.38,SE,135,0.0,0.0,41,0.00,,---,0.00,VWS V14.01,2013-04-22 00:34:00,
2013-04-21 19:39:00,50.9,28.1,29.41,South,180,1.6,1.6,41,0.00,,---,0.00,VWS V14.01,2013-04-22 00:39:00,
2013-04-21 19:44:00,50.5,27.7,29.41,SE,135,0.0,2.5,41,0.00,,---,0.00,VWS V14.01,2013-04-22 00:44:00,
2013-04-21 19:49:00,50.4,27.6,29.41,SE,135,1.1,1.1,41,0.00,,---,0.00,VWS V14.01,2013-04-22 00:49:00,
2013-04-21 19:54:00,50.0,27.8,29.41,SE,135,2.5,2.5,42,0.00,,---,0.00,VWS V14.01,2013-04-22 00:54:00,
2013-04-21 19:59:00,50.0,27.8,29.41,South,180,0.9,0.9,42,0.00,,---,0.00,VWS V14.01,2013-04-22 00:59:00,
2013-04-21 20:04:00,49.8,27.7,29.41,SE,135,0.0,2.0,42,0.00,,---,0.00,VWS V14.01,2013-04-22 01:04:00,
2013-04-21 20:09:00,49.5,27.9,29.41,South,180,0.0,0.0,43,0.00,,---,0.00,VWS V14.01,2013-04-22 01:09:00,
2013-04-21 20:14:00,49.3,27.8,29.41,SE,135,0.9,0.9,43,0.00,,---,0.00,VWS V14.01,2013-04-22 01:14:00,
2013-04-21 20:19:00,49.1,27.6,29.41,SE,135,0.0,1.1,43,0.00,,---,0.00,VWS V14.01,2013-04-22 01:19:00,
2013-04-21 20:24:00,48.7,27.8,29.41,SE,135,1.1,1.6,44,0.00,,---,0.00,VWS V14.01,2013-04-22 01:24:00,
2013-04-21 20:29:00,48.7,27.8,29.41,SE,135,2.2,2.2,44,0.00,,---,0.00,VWS V14.01,2013-04-22 01:29:00,
2013-04-21 20:34:00,48.6,27.6,29.41,SE,135,1.6,1.6,44,0.00,,---,0.00,VWS V14.01,2013-04-22 01:34:00,
2013-04-21 20:39:00,48.4,27.5,29.41,SE,135,0.0,2.0,44,0.00,,---,0.00,VWS V14.01,2013-04-22 01:39:00,
2013-04-21 20:44:00,48.4,28.0,29.41,SSE,158,0.0,0.0,45,0.00,,---,0.00,VWS V14.01,2013-04-22 01:44:00,
2013-04-21 20:49:00,48.2,27.9,29.41,SE,135,2.0,2.0,45,0.00,,---,0.00,VWS V14.01,2013-04-22 01:49:00,
2013-04-21 20:54:00,47.8,28.1,29.41,SE,135,0.0,2.9,46,0.00,,---,0.00,VWS V14.01,2013-04-22 01:54:00,
2013-04-21 20:59:00,47.8,28.1,29.41,SE,135,0.0,0.0,46,0.00,,---,0.00,VWS V14.01,2013-04-22 01:59:00,
2013-04-21 21:04:00,47.7,27.9,29.41,SSE,158,0.0,0.0,46,0.00,,---,0.00,VWS V14.01,2013-04-22 02:04:00,
2013-04-21 21:09:00,47.5,28.3,29.41,SSE,158,0.0,0.0,47,0.00,,---,0.00,VWS V14.01,2013-04-22 02:09:00,
2013-04-21 21:14:00,47.5,28.3,29.41,SSE,158,0.0,0.0,47,0.00,,---,0.00,VWS V14.01,2013-04-22 02:14:00,
2013-04-21 21:19:00,47.3,28.1,29.41,South,180,0.0,0.0,47,0.00,,---,0.00,VWS V14.01,2013-04-22 02:19:00,
2013-04-21 21:24:00,47.3,28.6,29.41,South,180,0.0,0.0,48,0.00,,---,0.00,VWS V14.01,2013-04-22 02:24:00,
2013-04-21 21:29:00,47.3,28.6,29.41,South,180,0.0,0.0,48,0.00,,---,0.00,VWS V14.01,2013-04-22 02:29:00,
2013-04-21 21:34:00,47.1,28.5,29.41,South,180,0.0,0.0,48,0.00,,---,0.00,VWS V14.01,2013-04-22 02:34:00,
2013-04-21 21:39:00,47.1,28.5,29.41,South,180,0.0,0.0,48,0.00,,---,0.00,VWS V14.01,2013-04-22 02:39:00,
2013-04-21 21:44:00,46.9,28.3,29.41,South,180,3.8,3.8,48,0.00,,---,0.00,VWS V14.01,2013-04-22 02:44:00,
2013-04-21 21:49:00,47.1,28.5,29.41,South,180,2.7,2.7,48,0.00,,---,0.00,VWS V14.01,2013-04-22 02:49:00,
2013-04-21 21:54:00,47.1,28.5,29.41,South,180,2.7,2.7,48,0.00,,---,0.00,VWS V14.01,2013-04-22 02:54:00,
2013-04-21 21:59:00,47.1,28.5,29.41,South,180,4.7,4.7,48,0.00,,---,0.00,VWS V14.01,2013-04-22 02:59:00,
2013-04-21 22:04:00,47.1,28.5,29.41,South,180,3.6,3.6,48,0.00,,---,0.00,VWS V14.01,2013-04-22 03:04:00,
2013-04-21 22:09:00,47.1,28.5,29.41,SSW,202,5.6,5.6,48,0.00,,---,0.00,VWS V14.01,2013-04-22 03:09:00,
2013-04-21 22:14:00,46.9,28.3,29.41,South,180,4.0,4.0,48,0.00,,---,0.00,VWS V14.01,2013-04-22 03:14:00,
2013-04-21 22:19:00,46.9,28.3,29.41,South,180,0.0,0.0,48,0.00,,---,0.00,VWS V14.01,2013-04-22 03:19:00,
2013-04-21 22:24:00,46.8,28.1,29.41,South,180,0.9,0.9,48,0.00,,---,0.00,VWS V14.01,2013-04-22 03:24:00,
2013-04-21 22:29:00,46.8,28.6,29.41,East,90,1.6,1.6,49,0.00,,---,0.00,VWS V14.01,2013-04-22 03:29:00,
2013-04-21 22:34:00,46.6,28.0,29.41,SSW,202,0.0,0.9,48,0.00,,---,0.00,VWS V14.01,2013-04-22 03:34:00,
2013-04-21 22:39:00,46.6,28.0,29.38,South,180,3.1,3.1,48,0.00,,---,0.00,VWS V14.01,2013-04-22 03:39:00,
2013-04-21 22:44:00,46.6,28.0,29.38,South,180,1.6,1.6,48,0.00,,---,0.00,VWS V14.01,2013-04-22 03:44:00,
2013-04-21 22:49:00,46.6,28.0,29.38,South,180,3.1,3.1,48,0.00,,---,0.00,VWS V14.01,2013-04-22 03:49:00,
2013-04-21 22:54:00,46.6,28.5,29.38,South,180,1.6,4.0,49,0.00,,---,0.00,VWS V14.01,2013-04-22 03:54:00,
2013-04-21 22:59:00,46.6,28.5,29.38,South,180,2.0,3.4,49,0.00,,---,0.00,VWS V14.01,2013-04-22 03:59:00,
2013-04-21 23:01:00,46.4,28.3,29.38,SSW,202,1.6,2.0,49,0.00,,---,0.00,VWS V14.01,2013-04-22 04:01:00,
2013-04-21 23:06:00,46.4,28.3,29.38,South,180,1.1,1.1,49,0.00,,---,0.00,VWS V14.01,2013-04-22 04:06:00,
2013-04-21 23:11:00,46.4,28.3,29.38,South,180,2.2,2.2,49,0.00,,---,0.00,VWS V14.01,2013-04-22 04:11:00,
2013-04-21 23:16:00,46.2,28.1,29.38,South,180,2.5,3.4,49,0.00,,---,0.00,VWS V14.01,2013-04-22 04:16:00,
2013-04-21 23:21:00,46.2,28.1,29.38,South,180,1.3,1.3,49,0.00,,---,0.00,VWS V14.01,2013-04-22 04:21:00,
2013-04-21 23:26:00,46.2,28.1,29.38,South,180,2.0,2.0,49,0.00,,---,0.00,VWS V14.01,2013-04-22 04:26:00,
2013-04-21 23:31:00,46.0,28.0,29.38,South,180,5.4,5.4,49,0.00,,---,0.00,VWS V14.01,2013-04-22 04:31:00,
2013-04-21 23:36:00,46.0,28.0,29.38,South,180,2.9,2.9,49,0.00,,---,0.00,VWS V14.01,2013-04-22 04:36:00,
2013-04-21 23:41:00,45.9,27.8,29.38,SSW,202,2.9,2.9,49,0.00,,---,0.00,VWS V14.01,2013-04-22 04:41:00,
2013-04-21 23:46:00,45.9,27.8,29.38,South,180,2.7,2.7,49,0.00,,---,0.00,VWS V14.01,2013-04-22 04:46:00,
2013-04-21 23:51:00,45.9,28.3,29.38,South,180,3.1,3.1,50,0.00,,---,0.00,VWS V14.01,2013-04-22 04:51:00,
2013-04-21 23:56:00,45.9,28.3,29.38,South,180,2.5,2.5,50,0.00,,---,0.00,VWS V14.01,2013-04-22 04:56:00,